Time;durP1;ratioP1;P1;durP2;ratioP2;P2;SDS_P1;SDS_P2;PMS_P1;PMS_P2;Temp;Humidity;BMP_temperature;BMP_pressure;BME280_temperature;BME280_humidity;BME280_pressure;Samples;Min_cycle;Max_cycle;Signal;HPM_P1;HPM_P2
2022/11/06 00:00:34;;;;;;;11.65;6.60;;;10.00;99.90;;;;;;5091806;28;20281;-53
2022/11/06 00:02:59;;;;;;;;;;;10.00;99.90;;;;;;5102531;28;20086;-52
2022/11/06 00:08:10;;;;;;;9.45;6.40;;;9.90;99.90;;;;;;5100622;28;20054;-52
2022/11/06 00:10:36;;;;;;;16.40;5.70;;;9.90;99.90;;;;;;5094263;28;20493;-51
2022/11/06 00:13:02;;;;;;;9.63;6.60;;;9.90;99.90;;;;;;5101611;28;20035;-55
2022/11/06 00:15:28;;;;;;;12.50;6.90;;;9.90;99.90;;;;;;5104042;28;20519;-51
2022/11/06 00:17:54;;;;;;;8.55;5.90;;;9.90;99.90;;;;;;5090968;28;20116;-51
2022/11/06 00:20:19;;;;;;;11.90;6.10;;;9.90;99.90;;;;;;5091096;28;20043;-53
2022/11/06 00:22:45;;;;;;;10.73;7.80;;;9.90;99.90;;;;;;5090849;28;20167;-56
2022/11/06 00:25:11;;;;;;;17.97;6.87;;;9.90;99.90;;;;;;5090801;28;20043;-56
2022/11/06 00:27:38;;;;;;;11.50;6.63;;;9.80;99.90;;;;;;5089575;28;20067;-54
2022/11/06 00:30:05;;;;;;;12.57;6.15;;;9.80;99.90;;;;;;5090783;28;20045;-55
2022/11/06 00:32:31;;;;;;;9.07;5.68;;;9.80;99.90;;;;;;5090710;28;20036;-53
2022/11/06 00:34:56;;;;;;;7.97;5.85;;;9.80;99.90;;;;;;5090097;28;20043;-52
2022/11/06 00:37:22;;;;;;;13.40;6.17;;;9.80;99.90;;;;;;5090822;28;20040;-54
2022/11/06 00:39:47;;;;;;;8.85;6.53;;;9.80;99.90;;;;;;5090475;28;20083;-55
2022/11/06 00:42:13;;;;;;;15.80;7.73;;;9.80;99.90;;;;;;5090656;28;20138;-56
2022/11/06 00:44:39;;;;;;;12.87;6.53;;;9.80;99.90;;;;;;5090030;28;20135;-56
2022/11/06 00:47:04;;;;;;;9.90;6.47;;;9.80;99.90;;;;;;5090254;28;20783;-54
2022/11/06 00:49:30;;;;;;;9.23;5.13;;;9.80;99.90;;;;;;5090300;28;20397;-54
2022/11/06 00:51:55;;;;;;;14.43;5.67;;;9.80;99.90;;;;;;5090067;28;20345;-56
2022/11/06 00:54:21;;;;;;;9.77;6.70;;;9.90;99.90;;;;;;5089685;28;20284;-56
2022/11/06 00:56:46;;;;;;;6.03;5.03;;;9.80;99.90;;;;;;5090515;28;20043;-55
2022/11/06 00:59:13;;;;;;;11.83;6.33;;;9.90;99.90;;;;;;5090629;28;20059;-56
2022/11/06 01:01:41;;;;;;;8.40;5.30;;;9.80;99.90;;;;;;5090216;28;20089;-55
2022/11/06 01:04:11;;;;;;;10.48;6.30;;;9.90;99.90;;;;;;5089496;28;20047;-55
2022/11/06 01:06:39;;;;;;;9.10;5.78;;;9.80;99.90;;;;;;5090521;28;20075;-54
2022/11/06 01:09:06;;;;;;;11.82;6.35;;;9.80;99.90;;;;;;5090047;28;20386;-55
2022/11/06 01:11:35;;;;;;;10.45;5.75;;;9.80;99.90;;;;;;5090277;28;20565;-56
2022/11/06 01:14:02;;;;;;;10.32;6.47;;;9.80;99.90;;;;;;5089336;28;20047;-56
2022/11/06 01:16:29;;;;;;;9.32;5.60;;;9.80;99.90;;;;;;5089753;28;20136;-56
2022/11/06 01:18:55;;;;;;;;;;;9.80;99.90;;;;;;5090365;28;20100;-51
2022/11/06 01:21:26;;;;;;;10.57;6.18;;;9.80;99.90;;;;;;5090490;28;19923;-53
2022/11/06 01:23:54;;;;;;;13.00;5.85;;;9.70;99.90;;;;;;5089909;28;20109;-51
2022/11/06 01:26:19;;;;;;;7.30;5.25;;;9.80;99.90;;;;;;5090061;28;20029;-52
2022/11/06 01:28:45;;;;;;;10.65;6.05;;;9.80;99.90;;;;;;5090039;28;20059;-53
2022/11/06 01:31:15;;;;;;;12.33;6.00;;;9.70;99.90;;;;;;5089702;28;20067;-53
2022/11/06 01:33:41;;;;;;;8.88;5.47;;;9.70;99.90;;;;;;5089717;28;20040;-54
2022/11/06 01:36:09;;;;;;;9.77;5.78;;;9.70;99.90;;;;;;5089740;28;20032;-52
2022/11/06 01:38:34;;;;;;;9.13;5.80;;;9.70;99.90;;;;;;5089956;28;20040;-53
2022/11/06 01:41:00;;;;;;;11.33;6.13;;;9.70;99.90;;;;;;5090185;28;20036;-54
2022/11/06 01:43:53;;;;;;;9.50;5.80;;;9.70;99.90;;;;;;5089598;28;20442;-53
2022/11/06 01:46:20;;;;;;;15.02;6.47;;;9.70;99.90;;;;;;5089613;28;20504;-53
2022/11/06 01:49:05;;;;;;;15.65;6.43;;;9.60;99.90;;;;;;5089719;28;20173;-53
2022/11/06 01:51:40;;;;;;;12.43;6.28;;;9.60;99.90;;;;;;5089800;28;20067;-53
2022/11/06 01:54:08;;;;;;;12.40;5.43;;;9.60;99.90;;;;;;5089260;28;20559;-52
2022/11/06 01:56:36;;;;;;;11.05;5.90;;;9.60;99.90;;;;;;5090038;28;20051;-53
2022/11/06 01:59:02;;;;;;;12.32;5.93;;;9.60;99.90;;;;;;5090226;28;20071;-52
2022/11/06 02:01:27;;;;;;;8.32;4.82;;;9.50;99.90;;;;;;5090031;28;20040;-52
2022/11/06 02:04:08;;;;;;;10.63;5.77;;;9.50;99.90;;;;;;5093062;28;20043;-52
2022/11/06 02:06:33;;;;;;;19.10;6.18;;;9.50;99.90;;;;;;5093042;28;20148;-51
2022/11/06 02:09:00;;;;;;;8.38;5.22;;;9.50;99.90;;;;;;5093537;28;20089;-54
2022/11/06 02:11:26;;;;;;;11.65;5.45;;;9.60;99.90;;;;;;5072940;28;20121;-51
2022/11/06 02:14:11;;;;;;;9.55;4.60;;;9.60;99.90;;;;;;5072870;28;20115;-52
2022/11/06 02:16:50;;;;;;;9.75;6.43;;;9.60;99.90;;;;;;5072907;28;20052;-53
2022/11/06 02:19:45;;;;;;;18.10;6.10;;;9.60;99.90;;;;;;5089232;28;20493;-55
2022/11/06 02:22:14;;;;;;;12.45;5.82;;;9.50;99.90;;;;;;5106088;28;20374;-53
2022/11/06 02:25:01;;;;;;;10.50;5.78;;;9.50;99.90;;;;;;5106105;28;20043;-55
2022/11/06 02:27:28;;;;;;;10.55;5.32;;;9.50;99.90;;;;;;5111294;28;20049;-55
2022/11/06 02:30:07;;;;;;;9.50;5.22;;;9.50;99.90;;;;;;5103851;28;20488;-52
2022/11/06 02:32:41;;;;;;;11.60;5.75;;;9.50;99.90;;;;;;5097517;28;20040;-53
2022/11/06 02:35:18;;;;;;;9.52;5.78;;;9.50;99.90;;;;;;5093133;28;20560;-54
2022/11/06 02:37:48;;;;;;;10.90;5.22;;;9.40;99.90;;;;;;5090111;28;20036;-51
2022/11/06 02:40:15;;;;;;;16.75;5.32;;;9.40;99.90;;;;;;5092675;28;20096;-54
2022/11/06 02:42:44;;;;;;;16.67;5.57;;;9.40;99.90;;;;;;5092507;28;20072;-56
2022/11/06 02:45:13;;;;;;;11.40;5.03;;;9.40;99.90;;;;;;5092578;28;20076;-53
2022/11/06 02:47:40;;;;;;;8.15;5.75;;;9.30;99.90;;;;;;5092890;28;20038;-55
2022/11/06 02:50:14;;;;;;;14.35;5.35;;;9.30;99.90;;;;;;5092222;28;20042;-55
2022/11/06 02:52:51;;;;;;;15.02;5.35;;;9.30;99.90;;;;;;5092542;28;20040;-54
2022/11/06 02:55:22;;;;;;;11.90;5.07;;;9.30;99.90;;;;;;5092554;28;20101;-55
2022/11/06 02:57:58;;;;;;;8.98;5.32;;;9.20;99.90;;;;;;5092853;28;20412;-52
2022/11/06 03:00:25;;;;;;;9.75;5.13;;;9.20;99.90;;;;;;5092380;28;20086;-55
2022/11/06 03:02:53;;;;;;;13.27;4.70;;;9.20;99.90;;;;;;5092026;28;20123;-56
2022/11/06 03:05:28;;;;;;;12.85;4.70;;;9.20;99.90;;;;;;5092471;28;20040;-55
2022/11/06 03:08:15;;;;;;;12.13;4.95;;;9.30;99.90;;;;;;5092291;28;20119;-55
2022/11/06 03:11:22;;;;;;;8.10;4.88;;;9.30;99.90;;;;;;5092411;28;20062;-54
2022/11/06 03:14:21;;;;;;;13.55;4.53;;;9.30;99.90;;;;;;5090983;28;20047;-56
2022/11/06 03:17:13;;;;;;;6.80;4.32;;;9.30;99.90;;;;;;5092618;28;20040;-55
2022/11/06 03:19:45;;;;;;;5.47;3.92;;;9.30;99.90;;;;;;5092545;28;20048;-53
2022/11/06 03:22:22;;;;;;;10.70;4.05;;;9.40;99.90;;;;;;5092219;28;20241;-56
2022/11/06 03:24:57;;;;;;;9.35;3.70;;;9.40;99.90;;;;;;5091473;28;20055;-56
2022/11/06 03:27:31;;;;;;;10.10;4.80;;;9.40;99.90;;;;;;5092438;28;20044;-54
2022/11/06 03:30:07;;;;;;;10.18;3.78;;;9.40;99.90;;;;;;5091988;28;20405;-53
2022/11/06 03:32:38;;;;;;;8.30;3.00;;;9.40;99.90;;;;;;5092043;28;20043;-56
2022/11/06 03:35:16;;;;;;;6.85;3.97;;;9.40;99.90;;;;;;5090585;28;20162;-55
2022/11/06 03:37:45;;;;;;;8.52;3.70;;;9.40;99.90;;;;;;5090995;28;20040;-56
2022/11/06 03:40:15;;;;;;;9.63;4.38;;;9.40;99.90;;;;;;5091041;28;20040;-55
2022/11/06 03:42:44;;;;;;;7.20;3.10;;;9.50;99.90;;;;;;5091763;28;20036;-53
2022/11/06 03:45:14;;;;;;;12.70;4.22;;;9.50;99.90;;;;;;5091280;28;20055;-53
2022/11/06 03:47:44;;;;;;;5.57;2.85;;;9.50;99.90;;;;;;5090454;28;20036;-54
2022/11/06 03:50:18;;;;;;;12.23;4.20;;;9.50;99.90;;;;;;5091391;28;20522;-53
2022/11/06 03:52:56;;;;;;;6.32;3.78;;;9.50;99.90;;;;;;5091604;28;20378;-51
2022/11/06 03:55:27;;;;;;;7.38;3.17;;;9.50;99.90;;;;;;5091710;28;20036;-54
2022/11/06 03:57:57;;;;;;;5.22;2.35;;;9.50;99.90;;;;;;5091934;28;20032;-52
2022/11/06 04:00:22;;;;;;;10.05;2.72;;;9.50;99.90;;;;;;5091553;28;20052;-52
2022/11/06 04:03:03;;;;;;;6.10;2.70;;;9.50;99.90;;;;;;5091450;28;20043;-52
2022/11/06 04:05:35;;;;;;;9.15;3.35;;;9.50;99.90;;;;;;5091501;28;20048;-53
2022/11/06 04:16:22;;;;;;;12.75;3.60;;;9.50;99.90;;;;;;5091279;28;20409;-51
2022/11/06 04:18:47;;;;;;;9.35;2.58;;;9.60;99.90;;;;;;5091077;28;20062;-55
2022/11/06 04:21:45;;;;;;;12.40;2.70;;;9.60;99.90;;;;;;5090891;28;20032;-53
2022/11/06 04:27:40;;;;;;;17.25;2.88;;;9.60;99.90;;;;;;5090869;28;20048;-52
2022/11/06 04:30:09;;;;;;;9.95;2.03;;;9.60;99.90;;;;;;5090295;28;20040;-56
2022/11/06 04:33:18;;;;;;;8.00;2.70;;;9.60;99.90;;;;;;5092075;28;20119;-53
2022/11/06 04:36:10;;;;;;;9.02;2.70;;;9.60;99.90;;;;;;5105606;28;20040;-52
2022/11/06 04:39:19;;;;;;;7.82;2.88;;;9.60;99.90;;;;;;5108772;28;20094;-52
2022/11/06 04:41:59;;;;;;;10.73;2.63;;;9.50;99.90;;;;;;5104793;28;20039;-54
2022/11/06 04:44:43;;;;;;;11.52;2.58;;;9.60;99.90;;;;;;5091447;28;20051;-54
2022/11/06 04:47:14;;;;;;;13.35;2.63;;;9.50;99.90;;;;;;5099485;28;20047;-51
2022/11/06 04:49:42;;;;;;;11.88;2.58;;;9.60;99.90;;;;;;5093045;28;20119;-54
2022/11/06 04:52:12;;;;;;;8.70;2.08;;;9.60;99.90;;;;;;5090172;28;20484;-53
2022/11/06 04:54:38;;;;;;;11.35;2.72;;;9.60;99.90;;;;;;5089966;28;20527;-51
2022/11/06 04:57:03;;;;;;;7.00;2.58;;;9.60;99.90;;;;;;5090198;28;20048;-54
2022/11/06 04:59:33;;;;;;;7.68;2.22;;;9.50;99.90;;;;;;5090564;28;20439;-53
2022/11/06 05:01:59;;;;;;;9.68;2.35;;;9.50;99.90;;;;;;5090252;28;20040;-55
2022/11/06 05:04:24;;;;;;;10.77;2.47;;;9.60;99.90;;;;;;5089893;28;20028;-55
2022/11/06 05:06:50;;;;;;;20.07;3.20;;;9.50;99.90;;;;;;5090470;28;20046;-53
2022/11/06 05:09:16;;;;;;;6.87;2.70;;;9.50;99.90;;;;;;5090256;28;20036;-55
2022/11/06 05:11:41;;;;;;;9.40;2.15;;;9.50;99.90;;;;;;5088524;28;20270;-52
2022/11/06 05:14:07;;;;;;;7.67;2.57;;;9.50;99.90;;;;;;5089746;28;20122;-54
2022/11/06 05:16:33;;;;;;;10.20;3.67;;;9.40;99.90;;;;;;5090096;28;20270;-55
2022/11/06 05:18:58;;;;;;;10.60;2.90;;;9.40;99.90;;;;;;5090601;28;20089;-54
2022/11/06 05:24:08;;;;;;;7.65;2.53;;;9.40;99.90;;;;;;5089589;28;20520;-53
2022/11/06 05:26:34;;;;;;;9.57;1.60;;;9.40;99.90;;;;;;5088416;28;20080;-55
2022/11/06 05:29:00;;;;;;;5.63;2.20;;;9.40;99.90;;;;;;5090138;28;20370;-53
2022/11/06 05:31:26;;;;;;;4.88;1.95;;;9.40;99.90;;;;;;5090127;28;20266;-52
2022/11/06 05:33:52;;;;;;;6.88;2.25;;;9.40;99.90;;;;;;5089518;28;20455;-55
2022/11/06 05:36:17;;;;;;;6.93;2.03;;;9.50;99.90;;;;;;5090144;28;20040;-55
2022/11/06 05:38:43;;;;;;;8.33;2.07;;;9.50;99.90;;;;;;5092100;28;20072;-54
2022/11/06 05:41:08;;;;;;;2.43;1.43;;;9.50;99.90;;;;;;5093552;28;20305;-56
2022/11/06 05:43:34;;;;;;;9.83;2.20;;;9.50;99.90;;;;;;5093819;28;20206;-56
2022/11/06 05:45:59;;;;;;;11.80;2.75;;;9.60;99.90;;;;;;5092672;28;20409;-56
2022/11/06 05:48:26;;;;;;;13.27;1.90;;;9.50;99.90;;;;;;5097643;28;20451;-55
2022/11/06 05:50:52;;;;;;;5.80;1.88;;;9.60;99.90;;;;;;5093879;28;20409;-56
2022/11/06 05:53:17;;;;;;;7.10;1.47;;;9.60;99.90;;;;;;5093311;28;20036;-55
2022/11/06 05:55:46;;;;;;;4.85;2.25;;;9.50;99.90;;;;;;5093414;28;20497;-55
2022/11/06 05:58:13;;;;;;;8.18;2.30;;;9.50;99.90;;;;;;5093522;28;20501;-55
2022/11/06 06:00:38;;;;;;;6.22;1.65;;;9.50;99.90;;;;;;5094006;28;20035;-55
2022/11/06 06:03:04;;;;;;;5.35;2.03;;;9.60;99.90;;;;;;5093480;28;20069;-55
2022/11/06 06:05:30;;;;;;;7.87;1.90;;;9.60;99.90;;;;;;5094053;28;20063;-54
2022/11/06 06:07:55;;;;;;;11.93;2.60;;;9.60;99.90;;;;;;5093561;28;20085;-52
2022/11/06 06:10:21;;;;;;;11.57;2.10;;;9.60;99.90;;;;;;5093507;28;20044;-53
2022/11/06 06:12:49;;;;;;;4.80;1.87;;;9.60;99.90;;;;;;5093429;28;20039;-51
2022/11/06 06:15:14;;;;;;;13.77;1.90;;;9.60;99.90;;;;;;5092069;28;20044;-53
2022/11/06 06:17:40;;;;;;;9.43;1.85;;;9.60;99.90;;;;;;5093538;28;20044;-52
2022/11/06 06:20:06;;;;;;;3.67;1.73;;;9.60;99.90;;;;;;5093196;28;20051;-52
2022/11/06 06:22:32;;;;;;;4.95;1.48;;;9.60;99.90;;;;;;5092872;28;20274;-52
2022/11/06 06:24:57;;;;;;;6.57;2.80;;;9.70;99.90;;;;;;5092837;28;20367;-53
2022/11/06 06:27:26;;;;;;;9.10;1.97;;;9.70;99.90;;;;;;5093196;28;20071;-51
2022/11/06 06:29:52;;;;;;;8.35;2.42;;;9.70;99.90;;;;;;5093014;28;20044;-53
2022/11/06 06:32:18;;;;;;;6.38;1.73;;;9.70;99.90;;;;;;5093368;28;20119;-55
2022/11/06 06:34:43;;;;;;;9.37;1.90;;;9.70;99.90;;;;;;5102098;28;20493;-56
2022/11/06 06:37:10;;;;;;;9.83;1.77;;;9.70;99.90;;;;;;5100785;28;20337;-55
2022/11/06 06:39:35;;;;;;;11.60;1.95;;;9.70;99.90;;;;;;5093212;28;20048;-54
2022/11/06 06:42:01;;;;;;;4.30;1.50;;;9.70;99.90;;;;;;5093391;28;20093;-55
2022/11/06 06:44:26;;;;;;;3.70;0.93;;;9.70;99.90;;;;;;5092526;28;20036;-55
2022/11/06 06:46:52;;;;;;;4.83;1.23;;;9.70;99.90;;;;;;5093011;28;20355;-51
2022/11/06 06:49:18;;;;;;;22.93;2.23;;;9.70;99.90;;;;;;5091769;28;20044;-54
2022/11/06 06:51:43;;;;;;;17.60;2.30;;;9.70;99.90;;;;;;5100406;28;20297;-55
2022/11/06 06:54:09;;;;;;;6.83;1.20;;;9.80;99.90;;;;;;5098441;28;20101;-54
2022/11/06 06:56:35;;;;;;;7.33;0.97;;;9.80;99.90;;;;;;5102726;28;20085;-56
2022/11/06 06:59:00;;;;;;;8.15;2.38;;;9.80;99.90;;;;;;5092567;28;20274;-54
2022/11/06 07:01:26;;;;;;;6.90;1.70;;;9.80;99.90;;;;;;5092396;28;20040;-53
2022/11/06 07:03:51;;;;;;;7.27;1.53;;;9.80;99.90;;;;;;5091964;28;20040;-55
2022/11/06 07:06:18;;;;;;;6.07;1.47;;;9.80;99.90;;;;;;5092058;28;20044;-54
2022/11/06 07:08:44;;;;;;;4.80;1.92;;;9.80;99.90;;;;;;5092497;28;20279;-56
2022/11/06 07:11:10;;;;;;;7.37;2.67;;;9.80;99.90;;;;;;5092403;28;20095;-55
2022/11/06 07:13:35;;;;;;;5.55;1.17;;;9.80;99.90;;;;;;5091680;28;20039;-53
2022/11/06 07:16:06;;;;;;;7.00;1.53;;;9.90;99.90;;;;;;5090347;28;20036;-52
2022/11/06 07:18:32;;;;;;;4.78;1.17;;;9.90;99.90;;;;;;5090964;28;20286;-55
2022/11/06 07:20:58;;;;;;;;;;;9.90;99.90;;;;;;5091941;28;20120;-51
2022/11/06 07:23:23;;;;;;;4.95;1.15;;;9.90;99.90;;;;;;5091891;28;20369;-52
2022/11/06 07:25:53;;;;;;;7.77;2.77;;;9.90;99.90;;;;;;5092210;28;20707;-55
2022/11/06 07:28:19;;;;;;;5.63;1.10;;;10.00;99.90;;;;;;5091846;28;20048;-54
2022/11/06 07:30:44;;;;;;;8.65;1.33;;;10.00;99.90;;;;;;5091908;28;20051;-56
2022/11/06 07:33:10;;;;;;;5.07;1.30;;;10.00;99.90;;;;;;5092664;28;20036;-55
2022/11/06 07:35:36;;;;;;;9.40;1.17;;;10.00;99.90;;;;;;5093466;28;20024;-54
2022/11/06 07:38:05;;;;;;;9.47;1.70;;;10.00;99.90;;;;;;5097930;28;20289;-53
2022/11/06 07:40:34;;;;;;;8.82;1.55;;;10.00;99.90;;;;;;5100671;28;20040;-54
2022/11/06 07:43:08;;;;;;;8.43;1.48;;;10.00;99.90;;;;;;5096161;28;20040;-56
2022/11/06 07:45:34;;;;;;;9.80;1.80;;;10.10;99.90;;;;;;5102972;28;20043;-57
2022/11/06 07:48:00;;;;;;;9.15;1.55;;;10.10;99.90;;;;;;5097687;28;20393;-55
2022/11/06 07:50:26;;;;;;;7.50;1.83;;;10.10;99.90;;;;;;5098953;28;20027;-55
2022/11/06 07:52:51;;;;;;;10.82;1.90;;;10.10;99.90;;;;;;5109437;28;20038;-56
2022/11/06 07:55:17;;;;;;;6.03;1.47;;;10.10;99.90;;;;;;5092492;28;20127;-54
2022/11/06 07:57:42;;;;;;;9.90;1.80;;;10.10;99.90;;;;;;5091446;28;20266;-56
2022/11/06 08:00:09;;;;;;;3.70;1.30;;;10.10;99.90;;;;;;5092360;28;20039;-55
2022/11/06 08:02:35;;;;;;;10.13;1.98;;;10.10;99.90;;;;;;5090828;28;20044;-54
2022/11/06 08:05:00;;;;;;;5.73;1.50;;;10.10;99.90;;;;;;5092016;28;20095;-57
2022/11/06 08:07:26;;;;;;;10.20;1.65;;;10.10;99.90;;;;;;5091428;28;20551;-56
2022/11/06 08:09:51;;;;;;;9.63;1.58;;;10.20;99.90;;;;;;5092344;28;20036;-55
2022/11/06 08:12:17;;;;;;;8.83;0.97;;;10.20;99.90;;;;;;5091812;28;20135;-56
2022/11/06 08:14:43;;;;;;;6.53;1.63;;;10.20;99.90;;;;;;5091581;28;20070;-57
2022/11/06 08:17:08;;;;;;;8.15;1.63;;;10.20;99.90;;;;;;5090709;28;20109;-53
2022/11/06 08:19:34;;;;;;;9.88;1.20;;;10.20;99.90;;;;;;5091995;28;20138;-55
2022/11/06 08:21:59;;;;;;;4.73;1.27;;;10.30;99.90;;;;;;5090940;28;20044;-55
2022/11/06 08:24:25;;;;;;;7.27;1.80;;;10.40;99.90;;;;;;5091270;28;20036;-56
2022/11/06 08:26:50;;;;;;;5.43;1.00;;;10.50;99.90;;;;;;5090899;28;20043;-56
2022/11/06 08:29:16;;;;;;;7.70;2.00;;;10.50;99.90;;;;;;5091831;28;20488;-53
2022/11/06 08:31:42;;;;;;;10.07;2.47;;;10.60;99.90;;;;;;5097428;28;20511;-53
2022/11/06 08:34:08;;;;;;;9.10;1.63;;;10.60;99.90;;;;;;5106190;28;20552;-52
2022/11/06 08:36:44;;;;;;;7.22;1.20;;;10.80;99.90;;;;;;5094018;28;20047;-52
2022/11/06 08:39:12;;;;;;;8.73;1.88;;;10.80;99.90;;;;;;5090891;28;20040;-53
2022/11/06 08:41:39;;;;;;;4.32;0.95;;;10.80;99.90;;;;;;5090556;28;20040;-53
2022/11/06 08:44:04;;;;;;;6.25;1.08;;;10.80;99.90;;;;;;5089851;28;20047;-54
2022/11/06 08:46:30;;;;;;;10.43;1.38;;;10.80;99.90;;;;;;5090804;28;20051;-54
2022/11/06 08:48:56;;;;;;;9.40;2.13;;;10.80;99.90;;;;;;5090479;28;20554;-54
2022/11/06 08:51:21;;;;;;;2.88;0.88;;;10.80;99.90;;;;;;5091490;28;20378;-52
2022/11/06 08:53:47;;;;;;;8.55;0.82;;;10.80;99.90;;;;;;5090145;28;20071;-53
2022/11/06 08:56:13;;;;;;;9.63;1.57;;;10.80;99.90;;;;;;5102660;28;20086;-54
2022/11/06 08:58:39;;;;;;;9.00;2.15;;;10.90;99.90;;;;;;5110481;28;20277;-55
2022/11/06 09:01:04;;;;;;;7.68;1.40;;;11.00;99.90;;;;;;5098357;28;20047;-52
2022/11/06 09:03:30;;;;;;;6.47;1.15;;;11.00;99.90;;;;;;5102735;28;20100;-54
2022/11/06 09:05:55;;;;;;;5.87;0.80;;;11.00;99.90;;;;;;5108781;28;20455;-52
2022/11/06 09:08:23;;;;;;;7.10;1.43;;;11.30;99.90;;;;;;5108445;28;20338;-56
2022/11/06 09:10:48;;;;;;;5.22;1.08;;;11.50;99.90;;;;;;5097573;28;20055;-54
2022/11/06 09:13:14;;;;;;;5.55;1.58;;;11.60;99.90;;;;;;5089060;28;20497;-57
2022/11/06 09:15:40;;;;;;;10.48;1.38;;;11.60;99.90;;;;;;5092332;28;20097;-53
2022/11/06 09:18:06;;;;;;;4.55;1.15;;;11.60;99.90;;;;;;5100198;28;20168;-52
2022/11/06 09:20:31;;;;;;;8.85;1.55;;;11.50;99.90;;;;;;5099354;28;20031;-54
2022/11/06 09:23:04;;;;;;;8.43;2.25;;;11.50;99.90;;;;;;5082518;28;20104;-54
2022/11/06 09:25:30;;;;;;;5.75;0.95;;;11.40;99.90;;;;;;5098903;28;20047;-53
2022/11/06 09:27:56;;;;;;;4.97;1.50;;;11.40;99.90;;;;;;5090420;28;20044;-55
2022/11/06 09:30:24;;;;;;;7.57;1.23;;;11.40;99.90;;;;;;5097750;28;20044;-54
2022/11/06 09:32:51;;;;;;;5.80;1.30;;;11.40;99.90;;;;;;5097272;28;20350;-54
2022/11/06 09:35:19;;;;;;;6.50;1.20;;;11.50;99.90;;;;;;5099345;28;20046;-51
2022/11/06 09:37:44;;;;;;;8.10;1.70;;;11.50;99.90;;;;;;5095332;28;20068;-54
2022/11/06 09:40:23;;;;;;;8.63;1.33;;;11.60;99.90;;;;;;5099459;28;20058;-54
2022/11/06 09:43:16;;;;;;;10.93;1.40;;;11.60;99.90;;;;;;5097012;28;20043;-54
2022/11/06 09:45:42;;;;;;;7.30;1.73;;;11.60;99.90;;;;;;5093751;28;20523;-54
2022/11/06 09:48:08;;;;;;;4.78;1.02;;;11.60;99.90;;;;;;5098240;28;20040;-52
2022/11/06 09:50:39;;;;;;;6.17;1.47;;;11.60;99.90;;;;;;5099735;28;20116;-52
2022/11/06 09:53:15;;;;;;;5.15;1.73;;;11.60;99.90;;;;;;5098570;28;20587;-52
2022/11/06 09:55:43;;;;;;;7.53;1.23;;;11.60;99.90;;;;;;5110180;28;20493;-52
2022/11/06 09:58:19;;;;;;;10.68;1.20;;;11.60;99.90;;;;;;5109967;28;20493;-53
2022/11/06 10:00:45;;;;;;;8.13;1.40;;;11.60;99.90;;;;;;5107714;28;20039;-53
2022/11/06 10:03:45;;;;;;;8.98;1.48;;;11.60;99.90;;;;;;5089189;28;20334;-52
2022/11/06 10:06:11;;;;;;;5.43;0.60;;;11.70;99.90;;;;;;5026954;28;20045;-52
2022/11/06 10:08:40;;;;;;;7.78;1.60;;;11.70;99.90;;;;;;5026639;28;20085;-53
2022/11/06 10:11:23;;;;;;;2.50;1.00;;;11.70;99.90;;;;;;5020808;28;20535;-51
2022/11/06 10:14:03;;;;;;;5.57;1.52;;;11.80;99.90;;;;;;5055867;28;20582;-52
2022/11/06 10:16:45;;;;;;;4.90;1.00;;;11.80;99.90;;;;;;5063362;28;20052;-55
2022/11/06 10:19:52;;;;;;;6.47;0.90;;;11.90;99.90;;;;;;5066722;28;20041;-52
2022/11/06 10:22:41;;;;;;;2.90;0.73;;;11.90;99.90;;;;;;4967569;28;20070;-52
2022/11/06 10:25:18;;;;;;;6.57;1.27;;;12.10;99.90;;;;;;4955047;28;20035;-55
2022/11/06 10:28:10;;;;;;;5.10;0.80;;;12.20;99.90;;;;;;4971527;28;20047;-53
2022/11/06 10:30:59;;;;;;;2.42;0.80;;;12.30;99.90;;;;;;4967566;28;20050;-53
2022/11/06 10:33:42;;;;;;;7.82;0.75;;;12.30;99.90;;;;;;4931961;28;20368;-54
2022/11/06 10:36:10;;;;;;;4.82;0.82;;;12.40;99.90;;;;;;4952776;28;20059;-52
2022/11/06 10:38:41;;;;;;;5.05;0.70;;;12.30;99.90;;;;;;4936121;28;20089;-55
2022/11/06 10:41:17;;;;;;;6.53;1.52;;;12.40;99.90;;;;;;4964276;28;20054;-55
2022/11/06 10:43:52;;;;;;;3.93;1.13;;;12.50;99.90;;;;;;5004886;28;20045;-55
2022/11/06 10:46:28;;;;;;;4.38;0.90;;;12.70;99.90;;;;;;5010028;28;20061;-54
2022/11/06 10:48:58;;;;;;;5.25;0.77;;;12.80;99.90;;;;;;5010099;28;20053;-55
2022/11/06 10:51:35;;;;;;;9.00;1.13;;;12.70;99.90;;;;;;5010112;28;20064;-55
2022/11/06 10:54:07;;;;;;;;;;;12.80;99.90;;;;;;5009796;28;20045;-55
2022/11/06 10:57:12;;;;;;;7.47;0.70;;;12.80;99.90;;;;;;5010238;28;20287;-51
2022/11/06 10:59:38;;;;;;;7.40;0.75;;;12.80;99.90;;;;;;5081590;28;20071;-52
2022/11/06 11:02:12;;;;;;;4.70;0.60;;;13.00;99.90;;;;;;5092027;28;20169;-51
2022/11/06 11:04:39;;;;;;;7.35;1.05;;;13.10;99.90;;;;;;5092184;28;20040;-53
2022/11/06 11:07:13;;;;;;;3.83;0.52;;;13.20;99.90;;;;;;5092226;28;20048;-51
2022/11/06 11:09:39;;;;;;;6.53;0.63;;;13.40;99.90;;;;;;5092465;28;20047;-50
2022/11/06 11:12:27;;;;;;;4.72;0.50;;;13.60;99.90;;;;;;5092203;28;20393;-53
2022/11/06 11:15:13;;;;;;;5.13;0.85;;;13.80;99.90;;;;;;5091723;28;20044;-51
2022/11/06 11:17:40;;;;;;;8.00;0.60;;;13.80;99.90;;;;;;5091431;28;20051;-53
2022/11/06 11:20:32;;;;;;;4.20;1.10;;;13.80;99.90;;;;;;5092709;28;20115;-51
2022/11/06 11:23:21;;;;;;;4.75;1.08;;;13.80;99.90;;;;;;5091107;28;20111;-51
2022/11/06 11:25:55;;;;;;;4.65;0.75;;;13.70;99.90;;;;;;5090837;28;20047;-52
2022/11/06 11:28:28;;;;;;;6.32;1.35;;;13.70;99.90;;;;;;5092143;28;20047;-52
2022/11/06 11:31:09;;;;;;;4.40;0.82;;;13.70;99.90;;;;;;5091873;28;20582;-54
2022/11/06 11:33:36;;;;;;;9.98;1.90;;;13.70;99.90;;;;;;5091397;28;20036;-52
2022/11/06 11:36:05;;;;;;;4.22;0.90;;;13.50;99.90;;;;;;5091040;28;20559;-52
2022/11/06 11:38:33;;;;;;;8.15;0.55;;;13.40;99.90;;;;;;5091801;28;20036;-51
2022/11/06 11:41:13;;;;;;;3.47;0.70;;;13.30;99.90;;;;;;5091987;28;20499;-53
2022/11/06 11:43:40;;;;;;;4.60;0.80;;;13.20;99.90;;;;;;5091166;28;20047;-54
2022/11/06 11:46:08;;;;;;;6.50;0.98;;;13.10;99.90;;;;;;5091428;28;20044;-52
2022/11/06 11:48:50;;;;;;;4.32;0.50;;;13.00;99.90;;;;;;5091206;28;20104;-51
2022/11/06 11:51:42;;;;;;;3.78;0.90;;;12.90;99.90;;;;;;5091592;28;20051;-51
2022/11/06 11:54:11;;;;;;;5.57;1.08;;;12.80;99.90;;;;;;5090671;28;20556;-52
2022/11/06 11:56:59;;;;;;;4.75;0.80;;;12.80;99.90;;;;;;5091273;28;20093;-51
2022/11/06 11:59:29;;;;;;;6.00;0.82;;;12.70;99.90;;;;;;5093910;28;20032;-50
2022/11/06 12:02:00;;;;;;;3.38;0.70;;;12.70;99.90;;;;;;5092927;28;20047;-53
2022/11/06 12:04:34;;;;;;;9.55;1.98;;;12.70;99.90;;;;;;5090581;28;20036;-53
2022/11/06 12:07:03;;;;;;;6.25;0.55;;;12.70;99.90;;;;;;5090773;28;20051;-51
2022/11/06 12:09:33;;;;;;;9.57;0.98;;;12.70;99.90;;;;;;5090836;28;20492;-53
2022/11/06 12:12:00;;;;;;;6.03;1.23;;;12.70;99.90;;;;;;5091028;28;20055;-56
2022/11/06 12:14:28;;;;;;;5.93;0.80;;;12.70;99.90;;;;;;5090524;28;20428;-50
2022/11/06 12:17:13;;;;;;;5.82;1.10;;;12.70;99.90;;;;;;5091020;28;20094;-51
2022/11/06 12:19:43;;;;;;;4.65;1.00;;;12.70;99.90;;;;;;5090830;28;20404;-54
2022/11/06 12:22:15;;;;;;;3.90;0.85;;;12.80;99.90;;;;;;5090924;28;20075;-51
2022/11/06 12:24:51;;;;;;;5.47;0.93;;;12.80;99.90;;;;;;5090348;28;20040;-55
2022/11/06 12:27:42;;;;;;;5.93;0.73;;;12.90;99.90;;;;;;5090705;28;20042;-53
2022/11/06 12:30:15;;;;;;;8.55;0.60;;;13.00;99.90;;;;;;5085375;28;20051;-52
2022/11/06 12:32:51;;;;;;;4.32;0.70;;;13.10;99.90;;;;;;5090779;28;20031;-53
2022/11/06 12:35:23;;;;;;;5.90;0.73;;;13.10;99.90;;;;;;5089177;28;20496;-54
2022/11/06 12:38:18;;;;;;;6.57;0.60;;;13.10;99.90;;;;;;5090581;28;20269;-55
2022/11/06 12:40:54;;;;;;;1.27;0.50;;;13.00;99.90;;;;;;5090694;28;20154;-53
2022/11/06 12:43:35;;;;;;;6.78;0.75;;;13.00;99.90;;;;;;5090265;28;20056;-52
2022/11/06 12:46:29;;;;;;;4.88;0.55;;;12.90;99.90;;;;;;5090529;28;20079;-53
2022/11/06 12:49:23;;;;;;;5.18;0.52;;;12.90;99.90;;;;;;5090573;28;20458;-55
2022/11/06 12:52:19;;;;;;;2.42;0.40;;;12.80;99.90;;;;;;5093374;28;20555;-55
2022/11/06 12:55:23;;;;;;;3.58;0.93;;;12.80;99.90;;;;;;5096597;28;20042;-55
2022/11/06 12:58:10;;;;;;;3.92;0.57;;;12.80;99.90;;;;;;5088439;28;20149;-54
2022/11/06 13:01:01;;;;;;;2.95;0.68;;;12.80;99.90;;;;;;5089315;28;20047;-55
2022/11/06 13:03:50;;;;;;;4.72;0.98;;;12.80;99.90;;;;;;5090240;28;20032;-52
2022/11/06 13:06:50;;;;;;;7.93;1.10;;;12.70;99.90;;;;;;5090419;28;20032;-54
2022/11/06 13:09:24;;;;;;;4.18;0.57;;;12.70;99.90;;;;;;5089909;28;20089;-55
2022/11/06 13:12:14;;;;;;;3.13;0.50;;;12.70;99.90;;;;;;5089106;28;20079;-55
2022/11/06 13:14:52;;;;;;;6.45;0.95;;;12.70;99.90;;;;;;5089711;28;20068;-53
2022/11/06 13:17:27;;;;;;;4.88;0.63;;;12.70;99.90;;;;;;5080859;28;20123;-51
2022/11/06 13:19:56;;;;;;;4.55;0.65;;;12.70;99.90;;;;;;5085876;28;20036;-53
2022/11/06 13:22:22;;;;;;;4.90;0.77;;;12.70;99.90;;;;;;5084880;28;20075;-53
2022/11/06 13:25:19;;;;;;;8.87;0.50;;;12.70;99.90;;;;;;5084937;28;20070;-53
2022/11/06 13:28:02;;;;;;;9.60;0.77;;;12.60;99.90;;;;;;5055375;28;20509;-53
2022/11/06 13:30:29;;;;;;;8.57;0.73;;;12.70;99.90;;;;;;5080658;28;20040;-52